sensor_id;sensor_type;location;lat;lon;timestamp;pressure;altitude;pressure_sealevel;temperature;humidity
67987;BME280;54767;53.800;15.956;2023-01-28T00:01:26;101331.17;;;1.13;68.35
67987;BME280;54767;53.800;15.956;2023-01-28T00:03:54;101335.21;;;1.14;68.51
67987;BME280;54767;53.800;15.956;2023-01-28T00:06:23;101337.80;;;1.15;68.72
67987;BME280;54767;53.800;15.956;2023-01-28T00:08:51;101334.69;;;1.15;68.99
67987;BME280;54767;53.800;15.956;2023-01-28T00:11:20;101339.36;;;1.15;68.91
67987;BME280;54767;53.800;15.956;2023-01-28T00:13:52;101336.38;;;1.14;68.89
67987;BME280;54767;53.800;15.956;2023-01-28T00:16:21;101334.39;;;1.12;68.88
67987;BME280;54767;53.800;15.956;2023-01-28T00:18:49;101334.91;;;1.09;68.52
67987;BME280;54767;53.800;15.956;2023-01-28T00:21:19;101341.96;;;1.06;68.74
67987;BME280;54767;53.800;15.956;2023-01-28T00:23:51;101347.58;;;1.05;68.81
67987;BME280;54767;53.800;15.956;2023-01-28T00:26:22;101345.61;;;1.04;68.69
67987;BME280;54767;53.800;15.956;2023-01-28T00:28:52;101346.91;;;1.05;68.89
67987;BME280;54767;53.800;15.956;2023-01-28T00:31:22;101348.31;;;1.08;68.75
67987;BME280;54767;53.800;15.956;2023-01-28T00:33:53;101349.05;;;1.12;69.03
67987;BME280;54767;53.800;15.956;2023-01-28T00:36:24;101339.77;;;1.13;68.87
67987;BME280;54767;53.800;15.956;2023-01-28T00:38:54;101346.61;;;1.18;68.79
67987;BME280;54767;53.800;15.956;2023-01-28T00:41:25;101344.27;;;1.19;69.24
67987;BME280;54767;53.800;15.956;2023-01-28T00:43:54;101346.01;;;1.20;69.21
67987;BME280;54767;53.800;15.956;2023-01-28T00:46:24;101346.52;;;1.20;68.83
67987;BME280;54767;53.800;15.956;2023-01-28T00:48:54;101346.80;;;1.18;68.93
67987;BME280;54767;53.800;15.956;2023-01-28T00:51:22;101345.55;;;1.18;68.48
67987;BME280;54767;53.800;15.956;2023-01-28T00:53:51;101338.36;;;1.16;68.61
67987;BME280;54767;53.800;15.956;2023-01-28T00:56:20;101336.20;;;1.14;68.66
67987;BME280;54767;53.800;15.956;2023-01-28T00:58:49;101339.73;;;1.12;68.90
67987;BME280;54767;53.800;15.956;2023-01-28T01:01:23;101337.02;;;1.10;68.82
67987;BME280;54767;53.800;15.956;2023-01-28T01:03:53;101338.09;;;1.08;68.92
67987;BME280;54767;53.800;15.956;2023-01-28T01:06:35;101334.56;;;1.06;68.99
67987;BME280;54767;53.800;15.956;2023-01-28T01:09:12;101331.33;;;1.04;68.92
67987;BME280;54767;53.800;15.956;2023-01-28T01:11:40;101330.48;;;1.02;68.40
67987;BME280;54767;53.800;15.956;2023-01-28T01:14:09;101336.79;;;1.00;68.05
67987;BME280;54767;53.800;15.956;2023-01-28T01:16:37;101331.34;;;1.01;68.12
67987;BME280;54767;53.800;15.956;2023-01-28T01:19:06;101334.36;;;1.06;68.18
67987;BME280;54767;53.800;15.956;2023-01-28T01:21:36;101326.66;;;1.07;68.47
67987;BME280;54767;53.800;15.956;2023-01-28T01:24:04;101329.32;;;1.08;68.41
67987;BME280;54767;53.800;15.956;2023-01-28T01:26:34;101332.17;;;1.10;68.50
67987;BME280;54767;53.800;15.956;2023-01-28T01:29:02;101334.19;;;1.09;68.35
67987;BME280;54767;53.800;15.956;2023-01-28T01:31:31;101333.85;;;1.06;68.42
67987;BME280;54767;53.800;15.956;2023-01-28T01:33:59;101334.42;;;1.04;68.58
67987;BME280;54767;53.800;15.956;2023-01-28T01:36:28;101333.11;;;1.02;68.54
67987;BME280;54767;53.800;15.956;2023-01-28T01:38:56;101330.46;;;0.98;67.94
67987;BME280;54767;53.800;15.956;2023-01-28T01:41:30;101331.90;;;0.93;67.48
67987;BME280;54767;53.800;15.956;2023-01-28T01:44:01;101334.82;;;0.87;67.51
67987;BME280;54767;53.800;15.956;2023-01-28T01:46:35;101335.10;;;0.83;67.77
67987;BME280;54767;53.800;15.956;2023-01-28T01:51:46;101336.23;;;0.79;67.99
67987;BME280;54767;53.800;15.956;2023-01-28T01:54:16;101330.84;;;0.78;67.68
67987;BME280;54767;53.800;15.956;2023-01-28T01:56:48;101327.81;;;0.77;67.54
67987;BME280;54767;53.800;15.956;2023-01-28T01:59:22;101326.04;;;0.76;67.97
67987;BME280;54767;53.800;15.956;2023-01-28T02:01:53;101324.43;;;0.78;68.35
67987;BME280;54767;53.800;15.956;2023-01-28T02:04:32;101321.10;;;0.82;68.20
67987;BME280;54767;53.800;15.956;2023-01-28T02:07:03;101323.98;;;0.87;68.47
67987;BME280;54767;53.800;15.956;2023-01-28T02:09:33;101328.27;;;0.93;68.51
67987;BME280;54767;53.800;15.956;2023-01-28T02:14:46;101329.66;;;0.99;68.69
67987;BME280;54767;53.800;15.956;2023-01-28T02:17:15;101329.63;;;1.02;69.22
67987;BME280;54767;53.800;15.956;2023-01-28T02:19:57;101333.40;;;1.04;68.98
67987;BME280;54767;53.800;15.956;2023-01-28T02:33:36;101329.77;;;1.07;69.29
67987;BME280;54767;53.800;15.956;2023-01-28T02:36:16;101330.88;;;1.08;69.27
67987;BME280;54767;53.800;15.956;2023-01-28T02:38:49;101331.18;;;1.10;69.18
67987;BME280;54767;53.800;15.956;2023-01-28T02:41:24;101327.33;;;1.12;68.75
67987;BME280;54767;53.800;15.956;2023-01-28T02:43:55;101329.23;;;1.16;68.77
67987;BME280;54767;53.800;15.956;2023-01-28T02:49:17;101318.39;;;1.16;68.62
67987;BME280;54767;53.800;15.956;2023-01-28T03:05:22;101323.09;;;1.02;68.52
67987;BME280;54767;53.800;15.956;2023-01-28T03:07:52;101316.46;;;1.01;68.72
67987;BME280;54767;53.800;15.956;2023-01-28T03:10:24;101314.59;;;1.01;69.11
67987;BME280;54767;53.800;15.956;2023-01-28T03:12:55;101312.27;;;1.02;69.10
67987;BME280;54767;53.800;15.956;2023-01-28T03:15:46;101315.80;;;1.01;68.31
67987;BME280;54767;53.800;15.956;2023-01-28T03:18:43;101317.16;;;1.01;68.35
67987;BME280;54767;53.800;15.956;2023-01-28T03:21:34;101316.80;;;1.00;68.51
67987;BME280;54767;53.800;15.956;2023-01-28T03:24:46;101308.85;;;1.00;68.36
67987;BME280;54767;53.800;15.956;2023-01-28T03:27:49;101308.71;;;0.98;68.46
67987;BME280;54767;53.800;15.956;2023-01-28T03:30:46;101305.59;;;0.97;68.73
67987;BME280;54767;53.800;15.956;2023-01-28T03:33:36;101308.83;;;0.97;68.79
67987;BME280;54767;53.800;15.956;2023-01-28T03:36:23;101307.86;;;0.98;69.11
67987;BME280;54767;53.800;15.956;2023-01-28T03:39:10;101305.05;;;1.00;69.09
67987;BME280;54767;53.800;15.956;2023-01-28T03:41:39;101306.10;;;1.00;69.06
67987;BME280;54767;53.800;15.956;2023-01-28T03:44:07;101305.09;;;1.01;68.98
67987;BME280;54767;53.800;15.956;2023-01-28T03:46:54;101309.41;;;1.01;69.36
67987;BME280;54767;53.800;15.956;2023-01-28T03:49:22;101306.23;;;1.02;69.37
67987;BME280;54767;53.800;15.956;2023-01-28T03:51:50;101303.64;;;1.05;69.23
67987;BME280;54767;53.800;15.956;2023-01-28T03:54:19;101302.55;;;1.10;69.42
67987;BME280;54767;53.800;15.956;2023-01-28T03:56:47;101300.39;;;1.15;69.65
67987;BME280;54767;53.800;15.956;2023-01-28T03:59:16;101298.73;;;1.19;69.41
67987;BME280;54767;53.800;15.956;2023-01-28T04:01:44;101304.05;;;1.22;69.75
67987;BME280;54767;53.800;15.956;2023-01-28T04:04:13;101309.55;;;1.25;69.77
67987;BME280;54767;53.800;15.956;2023-01-28T04:06:51;101307.61;;;1.27;69.81
67987;BME280;54767;53.800;15.956;2023-01-28T04:09:21;101303.35;;;1.27;69.50
67987;BME280;54767;53.800;15.956;2023-01-28T04:11:49;101305.56;;;1.27;69.41
67987;BME280;54767;53.800;15.956;2023-01-28T04:14:18;101308.73;;;1.25;69.08
67987;BME280;54767;53.800;15.956;2023-01-28T04:16:46;101305.19;;;1.23;68.95
67987;BME280;54767;53.800;15.956;2023-01-28T04:19:15;101310.79;;;1.22;69.32
67987;BME280;54767;53.800;15.956;2023-01-28T04:21:43;101309.48;;;1.20;69.57
67987;BME280;54767;53.800;15.956;2023-01-28T04:24:11;101305.81;;;1.19;70.09
67987;BME280;54767;53.800;15.956;2023-01-28T04:26:40;101312.59;;;1.20;69.72
67987;BME280;54767;53.800;15.956;2023-01-28T04:29:08;101309.70;;;1.24;69.94
67987;BME280;54767;53.800;15.956;2023-01-28T04:31:37;101314.95;;;1.28;70.06
67987;BME280;54767;53.800;15.956;2023-01-28T04:34:05;101318.25;;;1.32;69.61
67987;BME280;54767;53.800;15.956;2023-01-28T04:36:33;101310.06;;;1.33;69.65
67987;BME280;54767;53.800;15.956;2023-01-28T04:39:02;101313.83;;;1.33;69.31
67987;BME280;54767;53.800;15.956;2023-01-28T04:41:31;101312.11;;;1.33;69.55
67987;BME280;54767;53.800;15.956;2023-01-28T04:43:59;101313.41;;;1.31;69.93
67987;BME280;54767;53.800;15.956;2023-01-28T04:46:27;101315.95;;;1.30;70.03
67987;BME280;54767;53.800;15.956;2023-01-28T04:48:55;101317.98;;;1.30;69.91
67987;BME280;54767;53.800;15.956;2023-01-28T04:51:24;101318.79;;;1.29;70.08
67987;BME280;54767;53.800;15.956;2023-01-28T04:53:52;101317.90;;;1.29;70.19
67987;BME280;54767;53.800;15.956;2023-01-28T04:56:20;101319.65;;;1.29;70.04
67987;BME280;54767;53.800;15.956;2023-01-28T04:58:49;101317.83;;;1.30;69.72
67987;BME280;54767;53.800;15.956;2023-01-28T05:01:17;101315.98;;;1.31;69.84
67987;BME280;54767;53.800;15.956;2023-01-28T05:03:45;101318.61;;;1.35;69.90
67987;BME280;54767;53.800;15.956;2023-01-28T05:06:13;101312.58;;;1.39;69.79
67987;BME280;54767;53.800;15.956;2023-01-28T05:08:42;101315.48;;;1.41;70.15
67987;BME280;54767;53.800;15.956;2023-01-28T05:11:10;101322.48;;;1.43;69.68
67987;BME280;54767;53.800;15.956;2023-01-28T05:13:40;101322.66;;;1.40;69.84
67987;BME280;54767;53.800;15.956;2023-01-28T05:16:08;101322.12;;;1.39;70.00
67987;BME280;54767;53.800;15.956;2023-01-28T05:18:36;101323.09;;;1.38;70.31
67987;BME280;54767;53.800;15.956;2023-01-28T05:21:05;101324.63;;;1.38;70.35
67987;BME280;54767;53.800;15.956;2023-01-28T05:23:33;101322.31;;;1.37;70.46
67987;BME280;54767;53.800;15.956;2023-01-28T05:26:01;101321.48;;;1.37;70.49
67987;BME280;54767;53.800;15.956;2023-01-28T05:28:30;101323.94;;;1.38;70.55
67987;BME280;54767;53.800;15.956;2023-01-28T05:31:02;101322.04;;;1.41;70.62
67987;BME280;54767;53.800;15.956;2023-01-28T05:33:32;101319.25;;;1.44;70.36
67987;BME280;54767;53.800;15.956;2023-01-28T05:36:00;101319.05;;;1.46;70.38
67987;BME280;54767;53.800;15.956;2023-01-28T05:38:29;101319.70;;;1.48;70.46
67987;BME280;54767;53.800;15.956;2023-01-28T05:40:57;101314.52;;;1.48;70.64
67987;BME280;54767;53.800;15.956;2023-01-28T05:43:25;101313.33;;;1.49;70.92
67987;BME280;54767;53.800;15.956;2023-01-28T05:45:54;101314.15;;;1.48;70.84
67987;BME280;54767;53.800;15.956;2023-01-28T05:48:22;101313.39;;;1.47;70.87
67987;BME280;54767;53.800;15.956;2023-01-28T05:50:50;101317.24;;;1.45;70.83
67987;BME280;54767;53.800;15.956;2023-01-28T05:53:19;101315.89;;;1.42;71.10
67987;BME280;54767;53.800;15.956;2023-01-28T05:55:49;101316.70;;;1.41;70.99
67987;BME280;54767;53.800;15.956;2023-01-28T05:58:19;101314.64;;;1.41;70.98
67987;BME280;54767;53.800;15.956;2023-01-28T06:00:48;101319.22;;;1.43;70.88
67987;BME280;54767;53.800;15.956;2023-01-28T06:03:16;101317.13;;;1.45;70.94
67987;BME280;54767;53.800;15.956;2023-01-28T06:05:45;101316.25;;;1.48;71.21
67987;BME280;54767;53.800;15.956;2023-01-28T06:08:13;101310.62;;;1.50;71.14
67987;BME280;54767;53.800;15.956;2023-01-28T06:10:41;101305.10;;;1.50;71.14
67987;BME280;54767;53.800;15.956;2023-01-28T06:13:10;101302.19;;;1.50;71.14
67987;BME280;54767;53.800;15.956;2023-01-28T06:15:38;101299.38;;;1.49;71.22
67987;BME280;54767;53.800;15.956;2023-01-28T06:18:06;101309.79;;;1.47;70.87
67987;BME280;54767;53.800;15.956;2023-01-28T06:20:35;101315.91;;;1.46;70.89
67987;BME280;54767;53.800;15.956;2023-01-28T06:23:03;101315.66;;;1.44;70.70
67987;BME280;54767;53.800;15.956;2023-01-28T06:25:31;101316.94;;;1.42;70.87
67987;BME280;54767;53.800;15.956;2023-01-28T06:28:00;101313.97;;;1.42;71.01
67987;BME280;54767;53.800;15.956;2023-01-28T06:30:28;101315.56;;;1.42;70.98
67987;BME280;54767;53.800;15.956;2023-01-28T06:32:56;101316.36;;;1.44;70.90
67987;BME280;54767;53.800;15.956;2023-01-28T06:35:25;101312.80;;;1.45;71.18
67987;BME280;54767;53.800;15.956;2023-01-28T06:37:53;101309.95;;;1.47;71.03
67987;BME280;54767;53.800;15.956;2023-01-28T06:40:22;101317.96;;;1.48;71.17
67987;BME280;54767;53.800;15.956;2023-01-28T06:42:52;101321.33;;;1.50;71.12
67987;BME280;54767;53.800;15.956;2023-01-28T06:45:20;101322.38;;;1.50;71.17
67987;BME280;54767;53.800;15.956;2023-01-28T06:47:48;101322.50;;;1.49;71.32
67987;BME280;54767;53.800;15.956;2023-01-28T06:50:16;101320.91;;;1.49;71.24
67987;BME280;54767;53.800;15.956;2023-01-28T06:52:45;101317.44;;;1.45;71.35
67987;BME280;54767;53.800;15.956;2023-01-28T06:55:13;101316.85;;;1.44;71.39
67987;BME280;54767;53.800;15.956;2023-01-28T06:57:41;101317.88;;;1.44;71.42
67987;BME280;54767;53.800;15.956;2023-01-28T07:00:12;101318.02;;;1.43;71.34
67987;BME280;54767;53.800;15.956;2023-01-28T07:02:43;101318.22;;;1.44;71.32
67987;BME280;54767;53.800;15.956;2023-01-28T07:05:12;101318.17;;;1.46;71.27
67987;BME280;54767;53.800;15.956;2023-01-28T07:07:40;101325.67;;;1.47;71.06
67987;BME280;54767;53.800;15.956;2023-01-28T07:10:09;101329.15;;;1.48;70.98
67987;BME280;54767;53.800;15.956;2023-01-28T07:12:38;101323.14;;;1.45;71.17
67987;BME280;54767;53.800;15.956;2023-01-28T07:15:07;101323.02;;;1.43;71.26
67987;BME280;54767;53.800;15.956;2023-01-28T07:17:39;101326.42;;;1.42;71.46
67987;BME280;54767;53.800;15.956;2023-01-28T07:20:11;101329.30;;;1.42;71.62
67987;BME280;54767;53.800;15.956;2023-01-28T07:22:41;101330.45;;;1.43;71.64
67987;BME280;54767;53.800;15.956;2023-01-28T07:25:11;101332.83;;;1.46;71.56
67987;BME280;54767;53.800;15.956;2023-01-28T07:27:48;101327.45;;;1.48;71.57
67987;BME280;54767;53.800;15.956;2023-01-28T07:30:18;101329.48;;;1.47;71.58
67987;BME280;54767;53.800;15.956;2023-01-28T07:32:52;101327.87;;;1.47;71.41
67987;BME280;54767;53.800;15.956;2023-01-28T07:35:21;101326.21;;;1.45;71.22
67987;BME280;54767;53.800;15.956;2023-01-28T07:37:55;101326.59;;;1.45;71.31
67987;BME280;54767;53.800;15.956;2023-01-28T07:40:24;101320.42;;;1.46;71.43
67987;BME280;54767;53.800;15.956;2023-01-28T07:42:53;101323.86;;;1.46;71.46
67987;BME280;54767;53.800;15.956;2023-01-28T07:45:24;101331.23;;;1.45;71.30
67987;BME280;54767;53.800;15.956;2023-01-28T07:47:57;101331.48;;;1.43;71.38
67987;BME280;54767;53.800;15.956;2023-01-28T07:50:28;101335.04;;;1.45;71.43
67987;BME280;54767;53.800;15.956;2023-01-28T07:52:57;101329.23;;;1.46;71.56
67987;BME280;54767;53.800;15.956;2023-01-28T07:55:26;101335.27;;;1.49;71.70
67987;BME280;54767;53.800;15.956;2023-01-28T07:57:59;101337.84;;;1.52;71.82
67987;BME280;54767;53.800;15.956;2023-01-28T08:00:29;101339.35;;;1.54;71.84
67987;BME280;54767;53.800;15.956;2023-01-28T08:03:01;101343.69;;;1.55;71.75
67987;BME280;54767;53.800;15.956;2023-01-28T08:05:43;101348.19;;;1.55;71.55
67987;BME280;54767;53.800;15.956;2023-01-28T08:08:13;101346.05;;;1.54;71.45
67987;BME280;54767;53.800;15.956;2023-01-28T08:10:41;101341.08;;;1.54;71.65
67987;BME280;54767;53.800;15.956;2023-01-28T08:13:12;101339.04;;;1.55;71.66
67987;BME280;54767;53.800;15.956;2023-01-28T08:15:41;101339.13;;;1.56;71.70
67987;BME280;54767;53.800;15.956;2023-01-28T08:18:11;101338.86;;;1.61;71.68
67987;BME280;54767;53.800;15.956;2023-01-28T08:20:41;101337.29;;;1.64;71.69
67987;BME280;54767;53.800;15.956;2023-01-28T08:23:17;101339.91;;;1.68;71.64
67987;BME280;54767;53.800;15.956;2023-01-28T08:25:46;101343.02;;;1.71;71.60
67987;BME280;54767;53.800;15.956;2023-01-28T08:28:15;101350.41;;;1.73;71.61
67987;BME280;54767;53.800;15.956;2023-01-28T08:30:45;101356.55;;;1.75;71.67
67987;BME280;54767;53.800;15.956;2023-01-28T08:33:15;101355.24;;;1.76;71.55
67987;BME280;54767;53.800;15.956;2023-01-28T08:35:43;101356.60;;;1.76;71.65
67987;BME280;54767;53.800;15.956;2023-01-28T08:38:13;101357.54;;;1.74;71.72
67987;BME280;54767;53.800;15.956;2023-01-28T08:40:46;101364.79;;;1.74;71.71
67987;BME280;54767;53.800;15.956;2023-01-28T08:43:17;101366.19;;;1.74;71.70
67987;BME280;54767;53.800;15.956;2023-01-28T08:45:46;101372.52;;;1.76;71.79
67987;BME280;54767;53.800;15.956;2023-01-28T08:48:18;101374.58;;;1.79;71.74
67987;BME280;54767;53.800;15.956;2023-01-28T08:50:48;101370.66;;;1.84;71.77
67987;BME280;54767;53.800;15.956;2023-01-28T08:53:18;101373.25;;;1.87;71.87
67987;BME280;54767;53.800;15.956;2023-01-28T08:55:47;101377.35;;;1.89;71.75
67987;BME280;54767;53.800;15.956;2023-01-28T08:58:17;101373.59;;;1.90;71.82
67987;BME280;54767;53.800;15.956;2023-01-28T09:00:45;101373.36;;;1.92;71.77
67987;BME280;54767;53.800;15.956;2023-01-28T09:03:15;101376.24;;;1.91;71.67
67987;BME280;54767;53.800;15.956;2023-01-28T09:05:44;101380.48;;;1.90;71.63
67987;BME280;54767;53.800;15.956;2023-01-28T09:08:13;101380.67;;;1.90;71.76
67987;BME280;54767;53.800;15.956;2023-01-28T09:10:42;101378.41;;;1.90;71.70
67987;BME280;54767;53.800;15.956;2023-01-28T09:13:13;101384.70;;;1.91;71.87
67987;BME280;54767;53.800;15.956;2023-01-28T09:15:42;101386.42;;;1.94;71.81
67987;BME280;54767;53.800;15.956;2023-01-28T09:18:11;101391.31;;;1.98;71.77
67987;BME280;54767;53.800;15.956;2023-01-28T09:20:39;101390.98;;;2.01;71.73
67987;BME280;54767;53.800;15.956;2023-01-28T09:23:08;101390.29;;;2.04;71.76
67987;BME280;54767;53.800;15.956;2023-01-28T09:25:37;101395.06;;;2.07;71.90
67987;BME280;54767;53.800;15.956;2023-01-28T09:28:06;101400.89;;;2.09;71.77
67987;BME280;54767;53.800;15.956;2023-01-28T09:30:35;101398.19;;;2.10;71.61
67987;BME280;54767;53.800;15.956;2023-01-28T09:33:05;101393.17;;;2.10;71.77
67987;BME280;54767;53.800;15.956;2023-01-28T09:35:34;101392.85;;;2.08;71.65
67987;BME280;54767;53.800;15.956;2023-01-28T09:38:03;101394.48;;;2.06;71.60
67987;BME280;54767;53.800;15.956;2023-01-28T09:40:36;101400.44;;;2.07;71.65
67987;BME280;54767;53.800;15.956;2023-01-28T09:46:13;101395.30;;;2.14;71.59
67987;BME280;54767;53.800;15.956;2023-01-28T09:48:49;101396.17;;;2.17;71.56
67987;BME280;54767;53.800;15.956;2023-01-28T09:51:35;101400.51;;;2.21;71.60
67987;BME280;54767;53.800;15.956;2023-01-28T09:57:22;101391.89;;;2.24;71.41
67987;BME280;54767;53.800;15.956;2023-01-28T09:59:51;101391.08;;;2.25;71.37
67987;BME280;54767;53.800;15.956;2023-01-28T10:16:01;101391.11;;;2.33;71.30
67987;BME280;54767;53.800;15.956;2023-01-28T10:18:45;101388.71;;;2.36;71.37
67987;BME280;54767;53.800;15.956;2023-01-28T10:23:58;101392.35;;;2.43;71.35
67987;BME280;54767;53.800;15.956;2023-01-28T10:26:40;101380.52;;;2.44;71.29
67987;BME280;54767;53.800;15.956;2023-01-28T10:29:16;101375.20;;;2.45;71.21
67987;BME280;54767;53.800;15.956;2023-01-28T10:31:54;101368.86;;;2.46;71.23
67987;BME280;54767;53.800;15.956;2023-01-28T10:34:22;101367.80;;;2.46;71.33
67987;BME280;54767;53.800;15.956;2023-01-28T10:36:52;101369.78;;;2.44;71.27
67987;BME280;54767;53.800;15.956;2023-01-28T10:39:21;101372.50;;;2.43;70.93
67987;BME280;54767;53.800;15.956;2023-01-28T10:41:52;101373.41;;;2.41;70.78
67987;BME280;54767;53.800;15.956;2023-01-28T10:44:36;101367.23;;;2.38;70.65
67987;BME280;54767;53.800;15.956;2023-01-28T10:47:09;101358.23;;;2.38;70.39
67987;BME280;54767;53.800;15.956;2023-01-28T10:49:43;101360.69;;;2.36;70.00
67987;BME280;54767;53.800;15.956;2023-01-28T10:52:14;101359.75;;;2.34;69.98
67987;BME280;54767;53.800;15.956;2023-01-28T10:54:42;101353.82;;;2.33;69.80
67987;BME280;54767;53.800;15.956;2023-01-28T10:57:16;101352.63;;;2.34;70.04
67987;BME280;54767;53.800;15.956;2023-01-28T10:59:45;101355.11;;;2.35;69.88
67987;BME280;54767;53.800;15.956;2023-01-28T11:05:14;101355.81;;;2.32;69.41
67987;BME280;54767;53.800;15.956;2023-01-28T11:07:48;101355.93;;;2.27;69.20
67987;BME280;54767;53.800;15.956;2023-01-28T11:10:31;101361.36;;;2.22;69.03
67987;BME280;54767;53.800;15.956;2023-01-28T11:13:14;101365.86;;;2.19;69.05
67987;BME280;54767;53.800;15.956;2023-01-28T11:18:23;101352.28;;;2.17;68.69
67987;BME280;54767;53.800;15.956;2023-01-28T11:21:06;101348.23;;;2.16;68.54
67987;BME280;54767;53.800;15.956;2023-01-28T11:24:00;101336.21;;;2.17;68.79
67987;BME280;54767;53.800;15.956;2023-01-28T11:26:37;101334.19;;;2.21;68.70
67987;BME280;54767;53.800;15.956;2023-01-28T11:29:24;101335.75;;;2.24;68.50
67987;BME280;54767;53.800;15.956;2023-01-28T11:32:35;101322.73;;;2.23;68.07
67987;BME280;54767;53.800;15.956;2023-01-28T11:35:04;101317.17;;;2.26;68.77
67987;BME280;54767;53.800;15.956;2023-01-28T11:37:34;101313.14;;;2.28;68.48
67987;BME280;54767;53.800;15.956;2023-01-28T11:40:14;101315.79;;;2.29;68.29
67987;BME280;54767;53.800;15.956;2023-01-28T11:42:52;101320.20;;;2.27;68.19
67987;BME280;54767;53.800;15.956;2023-01-28T11:51:27;101316.48;;;2.13;67.66
67987;BME280;54767;53.800;15.956;2023-01-28T11:54:04;101314.81;;;2.11;68.03
67987;BME280;54767;53.800;15.956;2023-01-28T11:59:21;101309.69;;;2.15;68.72
67987;BME280;54767;53.800;15.956;2023-01-28T12:41:44;101253.95;;;2.87;69.03
67987;BME280;54767;53.800;15.956;2023-01-28T12:44:29;101252.20;;;2.87;69.18
67987;BME280;54767;53.800;15.956;2023-01-28T12:47:32;101255.02;;;2.88;69.00
67987;BME280;54767;53.800;15.956;2023-01-28T12:57:24;101254.89;;;2.92;68.61
67987;BME280;54767;53.800;15.956;2023-01-28T13:00:02;101252.42;;;2.92;68.67
67987;BME280;54767;53.800;15.956;2023-01-28T13:02:45;101250.10;;;2.93;68.57
67987;BME280;54767;53.800;15.956;2023-01-28T13:05:52;101238.15;;;2.93;68.64
67987;BME280;54767;53.800;15.956;2023-01-28T13:08:28;101238.31;;;2.93;68.56
67987;BME280;54767;53.800;15.956;2023-01-28T13:10:59;101241.76;;;2.92;68.76
67987;BME280;54767;53.800;15.956;2023-01-28T13:13:40;101238.98;;;2.92;68.73
67987;BME280;54767;53.800;15.956;2023-01-28T13:16:11;101241.38;;;2.91;68.63
67987;BME280;54767;53.800;15.956;2023-01-28T13:19:04;101227.14;;;2.87;68.58
67987;BME280;54767;53.800;15.956;2023-01-28T13:35:23;101224.73;;;2.84;68.12
67987;BME280;54767;53.800;15.956;2023-01-28T13:37:55;101215.42;;;2.88;68.33
67987;BME280;54767;53.800;15.956;2023-01-28T13:40:26;101218.67;;;2.90;68.38
67987;BME280;54767;53.800;15.956;2023-01-28T13:43:05;101215.02;;;2.90;68.15
67987;BME280;54767;53.800;15.956;2023-01-28T13:45:34;101209.85;;;2.91;68.35
67987;BME280;54767;53.800;15.956;2023-01-28T13:48:49;101209.52;;;2.91;68.33
67987;BME280;54767;53.800;15.956;2023-01-28T13:51:39;101198.11;;;2.87;68.08
67987;BME280;54767;53.800;15.956;2023-01-28T13:54:20;101204.04;;;2.88;68.10
67987;BME280;54767;53.800;15.956;2023-01-28T13:57:04;101211.16;;;2.86;67.65
67987;BME280;54767;53.800;15.956;2023-01-28T14:00:03;101204.91;;;2.82;67.97
67987;BME280;54767;53.800;15.956;2023-01-28T14:11:15;101202.13;;;2.71;68.02
67987;BME280;54767;53.800;15.956;2023-01-28T14:16:59;101198.56;;;2.64;68.12
67987;BME280;54767;53.800;15.956;2023-01-28T14:19:32;101213.42;;;2.65;68.26
67987;BME280;54767;53.800;15.956;2023-01-28T14:22:18;101228.86;;;2.66;68.39
67987;BME280;54767;53.800;15.956;2023-01-28T14:33:55;101213.41;;;2.71;69.03
67987;BME280;54767;53.800;15.956;2023-01-28T14:36:29;101211.80;;;2.70;68.57
67987;BME280;54767;53.800;15.956;2023-01-28T14:42:22;101215.17;;;2.69;68.86
67987;BME280;54767;53.800;15.956;2023-01-28T14:51:20;101215.86;;;2.65;68.82
67987;BME280;54767;53.800;15.956;2023-01-28T14:57:50;101224.62;;;2.67;68.69
67987;BME280;54767;53.800;15.956;2023-01-28T15:00:30;101220.78;;;2.66;68.90
67987;BME280;54767;53.800;15.956;2023-01-28T15:03:18;101213.45;;;2.65;69.03
67987;BME280;54767;53.800;15.956;2023-01-28T15:06:13;101212.90;;;2.61;68.99
67987;BME280;54767;53.800;15.956;2023-01-28T15:12:36;101229.58;;;2.49;68.85
67987;BME280;54767;53.800;15.956;2023-01-28T15:15:29;101225.94;;;2.45;68.80
67987;BME280;54767;53.800;15.956;2023-01-28T15:18:33;101221.51;;;2.40;68.85
67987;BME280;54767;53.800;15.956;2023-01-28T15:21:05;101222.77;;;2.34;69.05
67987;BME280;54767;53.800;15.956;2023-01-28T15:23:37;101237.98;;;2.31;68.93
67987;BME280;54767;53.800;15.956;2023-01-28T15:26:10;101235.16;;;2.30;69.22
67987;BME280;54767;53.800;15.956;2023-01-28T15:28:42;101232.41;;;2.31;68.96
67987;BME280;54767;53.800;15.956;2023-01-28T15:31:32;101232.15;;;2.32;69.09
67987;BME280;54767;53.800;15.956;2023-01-28T15:34:14;101244.67;;;2.30;69.30
67987;BME280;54767;53.800;15.956;2023-01-28T15:36:44;101256.39;;;2.26;69.06
67987;BME280;54767;53.800;15.956;2023-01-28T15:39:19;101264.23;;;2.24;69.10
67987;BME280;54767;53.800;15.956;2023-01-28T15:42:05;101253.45;;;2.23;69.14
67987;BME280;54767;53.800;15.956;2023-01-28T15:44:42;101255.23;;;2.20;69.11
67987;BME280;54767;53.800;15.956;2023-01-28T15:47:25;101263.90;;;2.18;68.83
67987;BME280;54767;53.800;15.956;2023-01-28T15:49:58;101266.65;;;2.14;68.94
67987;BME280;54767;53.800;15.956;2023-01-28T15:52:42;101269.30;;;2.12;69.24
67987;BME280;54767;53.800;15.956;2023-01-28T15:58:20;101262.09;;;2.10;69.54
67987;BME280;54767;53.800;15.956;2023-01-28T16:03:36;101245.89;;;2.14;69.67
67987;BME280;54767;53.800;15.956;2023-01-28T16:06:17;101239.67;;;2.13;69.89
67987;BME280;54767;53.800;15.956;2023-01-28T16:08:55;101243.35;;;2.11;69.70
67987;BME280;54767;53.800;15.956;2023-01-28T16:11:36;101248.20;;;2.08;69.77
67987;BME280;54767;53.800;15.956;2023-01-28T16:14:42;101250.21;;;2.04;69.61
67987;BME280;54767;53.800;15.956;2023-01-28T16:17:21;101254.41;;;1.98;69.69